Time;durP1;ratioP1;P1;durP2;ratioP2;P2;SDS_P1;SDS_P2;PMS_P1;PMS_P2;Temp;Humidity;BMP_temperature;BMP_pressure;BME280_temperature;BME280_humidity;BME280_pressure;Samples;Min_cycle;Max_cycle;Signal;HPM_P1;HPM_P2
2023/05/14 00:00:18;;;;;;;19.80;15.50;;;12.40;99.90;;;;;;7375504;19;20386;-64
2023/05/14 00:02:44;;;;;;;18.08;14.95;;;12.40;99.90;;;;;;7374071;19;20026;-64
2023/05/14 00:05:10;;;;;;;22.35;17.55;;;12.40;99.90;;;;;;7373077;19;20037;-64
2023/05/14 00:07:36;;;;;;;18.90;14.60;;;12.30;99.90;;;;;;7376352;19;20018;-64
2023/05/14 00:10:02;;;;;;;20.95;16.42;;;12.30;99.90;;;;;;7374159;19;20010;-63
2023/05/14 00:12:29;;;;;;;20.23;14.07;;;12.30;99.90;;;;;;7369856;19;20406;-63
2023/05/14 00:14:55;;;;;;;21.52;15.25;;;12.20;99.90;;;;;;7368359;19;20450;-64
2023/05/14 00:17:21;;;;;;;21.02;16.30;;;12.20;99.90;;;;;;7379776;19;20106;-65
2023/05/14 00:19:48;;;;;;;17.90;15.52;;;12.20;99.90;;;;;;7371206;19;20014;-63
2023/05/14 00:22:14;;;;;;;21.33;14.93;;;12.20;99.90;;;;;;7362204;19;20014;-64
2023/05/14 00:24:40;;;;;;;25.13;15.80;;;12.20;99.90;;;;;;7377675;19;20021;-64
2023/05/14 00:27:06;;;;;;;20.98;16.25;;;12.20;99.90;;;;;;7377794;19;20065;-64
2023/05/14 00:29:33;;;;;;;20.58;15.82;;;12.20;99.90;;;;;;7368726;19;20018;-63
2023/05/14 00:31:59;;;;;;;21.95;15.90;;;12.10;99.90;;;;;;7372888;19;20018;-63
2023/05/14 00:34:25;;;;;;;23.98;17.05;;;12.20;99.90;;;;;;7372701;19;20022;-63
2023/05/14 00:36:52;;;;;;;20.77;16.00;;;12.20;99.90;;;;;;7373440;19;20489;-64
2023/05/14 00:39:18;;;;;;;25.05;16.85;;;12.10;99.90;;;;;;7376925;19;20022;-63
2023/05/14 00:41:45;;;;;;;21.75;17.13;;;12.10;99.90;;;;;;7372478;19;20369;-64
2023/05/14 00:44:11;;;;;;;24.55;17.02;;;12.10;99.90;;;;;;7376515;19;20038;-63
2023/05/14 00:46:37;;;;;;;19.73;17.38;;;12.10;99.90;;;;;;7377290;19;20702;-63
2023/05/14 00:49:04;;;;;;;20.95;16.73;;;12.00;99.90;;;;;;7369197;19;20014;-63
2023/05/14 00:51:30;;;;;;;19.33;16.23;;;12.10;99.90;;;;;;7365192;19;20097;-64
2023/05/14 00:53:56;;;;;;;19.52;17.08;;;12.10;99.90;;;;;;7364968;19;20029;-65
2023/05/14 00:56:23;;;;;;;23.40;17.30;;;12.10;99.90;;;;;;7377826;19;20018;-64
2023/05/14 00:58:52;;;;;;;22.20;16.88;;;12.00;99.90;;;;;;7376025;19;20151;-64
2023/05/14 01:01:19;;;;;;;20.00;16.98;;;12.00;99.90;;;;;;7372407;19;20022;-64
2023/05/14 01:03:45;;;;;;;19.40;16.73;;;12.00;99.90;;;;;;7375033;19;20085;-64
2023/05/14 01:06:27;;;;;;;20.42;16.00;;;12.00;99.90;;;;;;7369636;19;20029;-64
2023/05/14 01:09:07;;;;;;;22.02;16.17;;;12.00;99.90;;;;;;7377515;19;20018;-64
2023/05/14 01:12:05;;;;;;;22.60;16.55;;;11.90;99.90;;;;;;7371522;19;20031;-64
2023/05/14 01:15:18;;;;;;;19.73;16.60;;;11.90;99.90;;;;;;7370832;19;20445;-64
2023/05/14 01:17:57;;;;;;;19.58;16.13;;;11.90;99.90;;;;;;7363228;19;20018;-64
2023/05/14 01:20:26;;;;;;;21.83;16.80;;;11.90;99.90;;;;;;7375412;19;20144;-63
2023/05/14 01:22:52;;;;;;;19.50;17.55;;;11.80;99.90;;;;;;7371908;19;20054;-63
2023/05/14 01:25:18;;;;;;;26.15;17.65;;;11.80;99.90;;;;;;7374892;19;20628;-64
2023/05/14 01:28:02;;;;;;;18.98;16.83;;;11.80;99.90;;;;;;7369410;19;20446;-64
2023/05/14 01:30:35;;;;;;;20.70;17.52;;;11.70;99.90;;;;;;7373749;19;20015;-64
2023/05/14 01:33:05;;;;;;;21.02;17.95;;;11.70;99.90;;;;;;7373582;19;20018;-64
2023/05/14 01:35:32;;;;;;;22.98;17.08;;;11.60;99.90;;;;;;7376082;19;20019;-64
2023/05/14 01:38:02;;;;;;;21.42;16.70;;;11.60;99.90;;;;;;7370025;19;20018;-64
2023/05/14 01:40:30;;;;;;;22.65;17.27;;;11.60;99.90;;;;;;7374376;19;20484;-64
2023/05/14 01:42:56;;;;;;;20.55;16.27;;;11.60;99.90;;;;;;7367796;19;20018;-64
2023/05/14 01:45:23;;;;;;;19.35;17.35;;;11.50;99.90;;;;;;7369925;19;20018;-64
2023/05/14 01:47:51;;;;;;;21.48;16.75;;;11.50;99.90;;;;;;7365684;19;20022;-65
2023/05/14 01:50:18;;;;;;;21.65;18.48;;;11.40;99.90;;;;;;7371456;19;21555;-63
2023/05/14 01:52:44;;;;;;;24.05;19.05;;;11.40;99.90;;;;;;7371990;19;20015;-64
2023/05/14 01:55:10;;;;;;;19.77;17.60;;;11.30;99.90;;;;;;7375136;19;20032;-63
2023/05/14 01:57:39;;;;;;;23.13;17.63;;;11.30;99.90;;;;;;7369508;19;20018;-64
2023/05/14 02:00:06;;;;;;;24.73;19.13;;;11.20;99.90;;;;;;7370379;19;20051;-64
2023/05/14 02:02:40;;;;;;;24.60;18.83;;;11.20;99.90;;;;;;7372853;19;20026;-64
2023/05/14 02:05:09;;;;;;;23.90;18.27;;;11.20;99.90;;;;;;7368794;19;20014;-64
2023/05/14 02:07:35;;;;;;;21.70;18.75;;;11.20;99.90;;;;;;7372544;19;20547;-64
2023/05/14 02:10:01;;;;;;;23.02;18.27;;;11.20;99.90;;;;;;7367313;19;20018;-63
2023/05/14 02:12:28;;;;;;;21.27;18.33;;;11.10;99.90;;;;;;7357858;19;20034;-64
2023/05/14 02:14:54;;;;;;;23.33;19.88;;;11.10;99.90;;;;;;7369743;19;20648;-64
2023/05/14 02:17:21;;;;;;;28.30;20.67;;;11.10;99.90;;;;;;7375022;19;20061;-65
2023/05/14 02:19:47;;;;;;;24.10;20.67;;;11.10;99.90;;;;;;7372034;19;20584;-64
2023/05/14 02:22:14;;;;;;;24.35;19.70;;;11.10;99.90;;;;;;7365706;19;20015;-64
2023/05/14 02:24:40;;;;;;;27.23;19.30;;;11.10;99.90;;;;;;7372779;19;20019;-65
2023/05/14 02:27:06;;;;;;;20.92;18.80;;;11.10;99.90;;;;;;7369183;19;20052;-64
2023/05/14 02:29:32;;;;;;;24.48;20.15;;;11.10;99.90;;;;;;7367586;19;20018;-63
2023/05/14 02:31:59;;;;;;;24.90;19.70;;;11.10;99.90;;;;;;7370897;19;20015;-64
2023/05/14 02:34:25;;;;;;;26.52;19.48;;;11.10;99.90;;;;;;7367071;19;20461;-64
2023/05/14 02:36:51;;;;;;;24.20;18.95;;;11.10;99.90;;;;;;7366147;19;20094;-64
2023/05/14 02:39:18;;;;;;;24.90;19.35;;;11.10;99.90;;;;;;7364411;19;20118;-64
2023/05/14 02:41:45;;;;;;;24.60;19.92;;;11.10;99.90;;;;;;7368912;19;20022;-64
2023/05/14 02:44:11;;;;;;;24.30;18.83;;;11.10;99.90;;;;;;7371997;19;20026;-63
2023/05/14 02:46:38;;;;;;;23.60;20.25;;;11.10;99.90;;;;;;7369824;19;20046;-64
2023/05/14 02:49:04;;;;;;;25.55;19.35;;;11.10;99.90;;;;;;7370287;19;20062;-63
2023/05/14 02:51:30;;;;;;;22.35;19.90;;;11.00;99.90;;;;;;7371209;19;20010;-67
2023/05/14 02:53:56;;;;;;;25.63;18.45;;;11.00;99.90;;;;;;7370896;19;20392;-63
2023/05/14 02:56:22;;;;;;;22.15;19.85;;;11.00;99.90;;;;;;7375696;19;20031;-64
2023/05/14 02:58:49;;;;;;;29.70;19.98;;;10.90;99.90;;;;;;7376383;19;20025;-63
2023/05/14 03:01:17;;;;;;;23.55;19.15;;;10.90;99.90;;;;;;7377843;19;20350;-63
2023/05/14 03:03:43;;;;;;;28.55;22.20;;;10.80;99.90;;;;;;7369661;19;20422;-64
2023/05/14 03:06:10;;;;;;;24.33;20.88;;;10.80;99.90;;;;;;7369787;19;20023;-64
2023/05/14 03:08:36;;;;;;;24.17;20.77;;;10.80;99.90;;;;;;7372548;19;20029;-63
2023/05/14 03:11:02;;;;;;;25.90;21.30;;;10.80;99.90;;;;;;7374557;19;20505;-64
2023/05/14 03:13:28;;;;;;;26.85;21.50;;;10.80;99.90;;;;;;7377821;19;20035;-64
2023/05/14 03:15:55;;;;;;;26.63;22.60;;;10.70;99.90;;;;;;7375692;19;20018;-63
2023/05/14 03:18:27;;;;;;;26.65;22.40;;;10.80;99.90;;;;;;7375915;19;20022;-64
2023/05/14 03:20:53;;;;;;;24.40;20.90;;;10.80;99.90;;;;;;7378033;19;20014;-64
2023/05/14 03:23:19;;;;;;;28.17;21.55;;;10.80;99.90;;;;;;7376607;19;20034;-63
2023/05/14 03:25:45;;;;;;;25.25;22.40;;;10.80;99.90;;;;;;7377211;19;20378;-63
2023/05/14 03:28:11;;;;;;;27.92;21.00;;;10.80;99.90;;;;;;7372186;19;20046;-63
2023/05/14 03:30:38;;;;;;;24.98;21.52;;;10.80;99.90;;;;;;7382509;19;20030;-64
2023/05/14 03:33:04;;;;;;;24.92;21.15;;;10.80;99.90;;;;;;7372192;19;20033;-63
2023/05/14 03:35:30;;;;;;;26.65;20.85;;;10.80;99.90;;;;;;7368105;19;20018;-64
2023/05/14 03:37:58;;;;;;;32.05;21.25;;;10.80;99.90;;;;;;7367886;19;20019;-64
2023/05/14 03:40:25;;;;;;;25.92;19.38;;;10.80;99.90;;;;;;7376742;19;20018;-63
2023/05/14 03:42:51;;;;;;;28.02;20.60;;;10.70;99.90;;;;;;7374828;19;20561;-63
2023/05/14 03:45:18;;;;;;;24.20;20.52;;;10.70;99.90;;;;;;7376393;19;20015;-63
2023/05/14 03:47:44;;;;;;;25.30;20.42;;;10.70;99.90;;;;;;7375150;19;20326;-63
2023/05/14 03:50:11;;;;;;;30.83;21.73;;;10.70;99.90;;;;;;7372560;19;20018;-65
2023/05/14 03:52:37;;;;;;;24.17;21.58;;;10.60;99.90;;;;;;7374259;19;20028;-63
2023/05/14 03:55:03;;;;;;;22.63;20.23;;;10.60;99.90;;;;;;7373294;19;20038;-63
2023/05/14 03:57:29;;;;;;;27.48;21.77;;;10.60;99.90;;;;;;7378149;19;20025;-63
2023/05/14 03:59:55;;;;;;;25.95;21.70;;;10.60;99.90;;;;;;7376139;19;20018;-63
2023/05/14 04:02:22;;;;;;;24.73;21.15;;;10.60;99.90;;;;;;7376292;19;20346;-63
2023/05/14 04:04:48;;;;;;;28.45;19.55;;;10.60;99.90;;;;;;7374094;19;20010;-63
2023/05/14 04:07:17;;;;;;;23.83;20.88;;;10.60;99.90;;;;;;7367890;19;20022;-63
2023/05/14 04:09:44;;;;;;;27.85;20.60;;;10.60;99.90;;;;;;7373929;19;20022;-63
2023/05/14 04:12:11;;;;;;;27.13;21.63;;;10.50;99.90;;;;;;7375058;19;20054;-63
2023/05/14 04:14:37;;;;;;;25.27;21.08;;;10.60;99.90;;;;;;7375896;19;20014;-64
2023/05/14 04:17:04;;;;;;;25.85;20.30;;;10.60;99.90;;;;;;7374399;19;20023;-64
2023/05/14 04:19:30;;;;;;;24.73;20.10;;;10.60;99.90;;;;;;7375235;19;20053;-63
2023/05/14 04:21:56;;;;;;;25.48;21.05;;;10.60;99.90;;;;;;7366844;19;20014;-64
2023/05/14 04:24:22;;;;;;;26.88;20.45;;;10.60;99.90;;;;;;7371785;19;20022;-63
2023/05/14 04:26:48;;;;;;;29.23;21.02;;;10.70;99.90;;;;;;7376577;19;20026;-63
2023/05/14 04:29:14;;;;;;;31.08;20.20;;;10.70;99.90;;;;;;7371709;19;20074;-64
2023/05/14 04:31:41;;;;;;;25.60;20.50;;;10.70;99.90;;;;;;7376632;19;20026;-64
2023/05/14 04:34:08;;;;;;;25.55;20.55;;;10.80;99.90;;;;;;7366355;19;20501;-64
2023/05/14 04:36:34;;;;;;;29.40;21.23;;;10.80;99.90;;;;;;7367198;19;20477;-63
2023/05/14 04:39:00;;;;;;;31.33;21.70;;;10.90;99.90;;;;;;7374193;19;20031;-65
2023/05/14 04:41:27;;;;;;;23.27;20.75;;;10.90;99.90;;;;;;7374494;19;20026;-64
2023/05/14 04:43:55;;;;;;;22.65;19.77;;;10.90;99.90;;;;;;7375976;19;20489;-64
2023/05/14 04:46:21;;;;;;;28.75;21.25;;;11.00;99.90;;;;;;7374397;19;20018;-64
2023/05/14 04:48:49;;;;;;;29.15;20.83;;;11.00;99.90;;;;;;7376609;19;20022;-64
2023/05/14 04:51:15;;;;;;;25.20;20.85;;;11.10;99.90;;;;;;7369353;19;20361;-64
2023/05/14 04:53:41;;;;;;;20.20;18.15;;;11.20;99.90;;;;;;7372714;19;20023;-64
2023/05/14 04:56:07;;;;;;;22.50;19.65;;;11.20;99.90;;;;;;7362816;19;20544;-64
2023/05/14 04:58:34;;;;;;;23.50;19.20;;;11.30;99.90;;;;;;7371505;19;20431;-63
2023/05/14 05:01:01;;;;;;;24.75;19.25;;;11.30;99.90;;;;;;7370172;19;20023;-64
2023/05/14 05:03:27;;;;;;;25.50;19.92;;;11.40;99.90;;;;;;7366545;19;20022;-64
2023/05/14 05:05:53;;;;;;;22.52;18.50;;;11.40;99.90;;;;;;7373041;19;20015;-65
2023/05/14 05:08:19;;;;;;;21.02;18.17;;;11.50;99.90;;;;;;7371318;19;20204;-65
2023/05/14 05:10:46;;;;;;;23.13;18.45;;;11.60;99.90;;;;;;7374470;19;20022;-64
2023/05/14 05:13:14;;;;;;;23.45;17.80;;;11.70;99.90;;;;;;7372551;19;20335;-64
2023/05/14 05:15:40;;;;;;;19.33;17.08;;;11.80;99.90;;;;;;7372349;19;20509;-65
2023/05/14 05:18:06;;;;;;;21.50;17.17;;;12.00;99.90;;;;;;7374750;19;20057;-64
2023/05/14 05:20:32;;;;;;;17.13;15.15;;;12.10;99.90;;;;;;7371491;19;20014;-65
2023/05/14 05:22:58;;;;;;;21.02;15.70;;;12.20;99.90;;;;;;7373897;19;20382;-64
2023/05/14 05:25:25;;;;;;;21.17;15.40;;;12.40;99.90;;;;;;7374164;19;20034;-65
2023/05/14 05:27:51;;;;;;;19.13;15.38;;;12.50;99.90;;;;;;7374389;19;20022;-65
2023/05/14 05:30:18;;;;;;;17.42;15.55;;;12.40;99.90;;;;;;7369247;19;20082;-64
2023/05/14 05:32:46;;;;;;;17.02;14.82;;;12.40;99.90;;;;;;7367709;19;20018;-64
2023/05/14 05:35:13;;;;;;;23.45;14.98;;;12.40;99.90;;;;;;7362729;19;20049;-65
2023/05/14 05:37:41;;;;;;;18.15;15.32;;;12.40;99.90;;;;;;7375745;19;20014;-64
2023/05/14 05:40:09;;;;;;;19.95;14.18;;;12.40;99.90;;;;;;7363381;19;20018;-65
2023/05/14 05:42:36;;;;;;;15.90;14.23;;;12.60;99.90;;;;;;7369303;19;20018;-65
2023/05/14 05:45:02;;;;;;;17.42;15.43;;;12.70;99.90;;;;;;7367099;19;20014;-64
2023/05/14 05:47:31;;;;;;;19.35;14.98;;;12.80;99.90;;;;;;7364344;19;20018;-65
2023/05/14 05:49:57;;;;;;;16.23;13.50;;;12.80;99.90;;;;;;7363327;19;20489;-64
2023/05/14 05:52:23;;;;;;;19.35;13.95;;;12.90;99.90;;;;;;7362370;19;20018;-68
2023/05/14 05:54:51;;;;;;;16.92;14.32;;;13.00;99.90;;;;;;7359725;19;20579;-65
2023/05/14 05:57:17;;;;;;;19.08;14.38;;;13.20;99.90;;;;;;7372724;19;20010;-65
2023/05/14 05:59:43;;;;;;;16.65;13.52;;;13.40;99.90;;;;;;7372373;19;20423;-65
2023/05/14 06:02:09;;;;;;;18.30;11.95;;;13.80;99.90;;;;;;7368613;19;20508;-65
2023/05/14 06:04:38;;;;;;;16.08;12.30;;;14.00;99.90;;;;;;7356956;19;20018;-65
2023/05/14 06:07:04;;;;;;;16.40;11.77;;;14.30;99.90;;;;;;7370377;19;20050;-65
2023/05/14 06:09:31;;;;;;;16.05;12.05;;;14.50;99.90;;;;;;7363748;19;20027;-66
2023/05/14 06:11:57;;;;;;;14.75;11.32;;;14.60;99.90;;;;;;7368199;19;20014;-65
2023/05/14 06:14:24;;;;;;;15.23;10.63;;;14.70;99.90;;;;;;7367957;19;20896;-65
2023/05/14 06:16:50;;;;;;;14.02;10.95;;;14.90;99.90;;;;;;7368076;19;20026;-65
2023/05/14 06:19:16;;;;;;;14.35;10.75;;;14.90;99.90;;;;;;7370416;19;20058;-65
2023/05/14 06:21:43;;;;;;;15.13;10.20;;;15.20;99.90;;;;;;7368529;19;20031;-62
2023/05/14 06:24:09;;;;;;;14.52;10.63;;;15.10;99.90;;;;;;7365979;19;20018;-64
2023/05/14 06:26:35;;;;;;;14.48;10.70;;;15.30;99.90;;;;;;7367756;19;20502;-66
2023/05/14 06:29:02;;;;;;;17.73;11.15;;;15.50;99.90;;;;;;7369202;19;20108;-65
2023/05/14 06:31:28;;;;;;;18.98;12.32;;;15.60;99.90;;;;;;7382319;19;20595;-58
2023/05/14 06:33:54;;;;;;;13.10;9.80;;;15.70;99.90;;;;;;7369908;19;20019;-58
2023/05/14 06:36:21;;;;;;;22.20;13.02;;;15.80;99.90;;;;;;7364223;19;20018;-58
2023/05/14 06:38:47;;;;;;;16.55;10.57;;;16.10;99.90;;;;;;7381217;19;20089;-59
2023/05/14 06:41:13;;;;;;;17.02;10.23;;;16.10;99.90;;;;;;7380982;19;20014;-58
2023/05/14 06:43:40;;;;;;;18.10;13.13;;;16.20;99.90;;;;;;7377915;19;20472;-59
2023/05/14 06:46:06;;;;;;;17.88;13.93;;;16.50;99.90;;;;;;7378496;19;20018;-59
2023/05/14 06:48:33;;;;;;;15.55;8.95;;;16.70;99.90;;;;;;7380425;19;20014;-60
2023/05/14 06:50:59;;;;;;;13.05;9.00;;;17.00;99.90;;;;;;7382185;19;20037;-58
2023/05/14 06:53:25;;;;;;;13.82;9.07;;;16.90;99.90;;;;;;7377220;19;20024;-59
2023/05/14 06:55:51;;;;;;;16.38;8.10;;;17.20;99.90;;;;;;7380023;19;20016;-59
2023/05/14 06:58:17;;;;;;;19.27;13.57;;;17.50;99.90;;;;;;7377779;19;20019;-59
2023/05/14 07:00:43;;;;;;;16.50;9.15;;;17.80;99.90;;;;;;7370055;19;20006;-58
2023/05/14 07:03:09;;;;;;;15.15;9.13;;;17.90;99.90;;;;;;7370857;19;20485;-58
2023/05/14 07:05:36;;;;;;;15.48;8.75;;;18.00;99.90;;;;;;7378296;19;20085;-58
2023/05/14 07:08:02;;;;;;;23.85;18.80;;;18.30;99.90;;;;;;7377486;19;20014;-59
2023/05/14 07:10:29;;;;;;;11.32;7.22;;;18.40;99.90;;;;;;7377251;19;20018;-59
2023/05/14 07:12:55;;;;;;;27.55;24.52;;;18.40;99.90;;;;;;7377923;19;20029;-60
2023/05/14 07:15:22;;;;;;;10.63;7.88;;;18.50;99.90;;;;;;7372419;19;20021;-61
2023/05/14 07:17:48;;;;;;;16.65;10.60;;;18.70;99.90;;;;;;7383429;19;20095;-60
2023/05/14 07:20:14;;;;;;;14.40;7.93;;;18.90;99.90;;;;;;7379074;19;20078;-60
2023/05/14 07:22:40;;;;;;;14.27;8.32;;;19.10;99.90;;;;;;7379303;19;20109;-60
2023/05/14 07:25:07;;;;;;;14.93;8.25;;;19.10;99.90;;;;;;7380414;19;20378;-58
2023/05/14 07:27:33;;;;;;;16.13;8.73;;;19.20;99.90;;;;;;7385225;19;20018;-57
2023/05/14 07:29:59;;;;;;;11.77;7.57;;;19.30;99.90;;;;;;7375075;19;20607;-66
2023/05/14 07:32:25;;;;;;;10.73;6.82;;;19.40;99.90;;;;;;7371135;19;20030;-66
2023/05/14 07:34:52;;;;;;;12.48;6.97;;;19.40;99.90;;;;;;7364055;19;20669;-66
2023/05/14 07:37:18;;;;;;;12.23;7.80;;;19.60;99.90;;;;;;7370706;19;20477;-66
2023/05/14 07:39:44;;;;;;;12.40;6.80;;;19.50;99.90;;;;;;7373656;19;20341;-67
2023/05/14 07:42:10;;;;;;;13.30;6.50;;;19.80;99.90;;;;;;7370898;19;20361;-58
2023/05/14 07:44:37;;;;;;;12.52;6.28;;;19.70;99.90;;;;;;7359901;19;20913;-58
2023/05/14 07:47:05;;;;;;;13.40;7.07;;;20.00;99.90;;;;;;7373566;19;20019;-59
2023/05/14 07:49:31;;;;;;;9.98;6.05;;;19.80;99.90;;;;;;7374747;19;20098;-58
2023/05/14 07:51:58;;;;;;;9.57;5.70;;;20.40;99.90;;;;;;7373092;19;20064;-58
2023/05/14 07:54:24;;;;;;;10.68;6.90;;;20.60;99.90;;;;;;7368292;19;20513;-58
2023/05/14 07:56:53;;;;;;;11.55;6.30;;;20.90;99.90;;;;;;7371322;19;20045;-59
2023/05/14 07:59:20;;;;;;;10.15;6.13;;;20.90;99.90;;;;;;7369301;19;21380;-66
2023/05/14 08:01:49;;;;;;;9.73;6.35;;;20.80;99.90;;;;;;7364871;19;20026;-66
2023/05/14 08:04:16;;;;;;;13.60;6.72;;;21.20;99.90;;;;;;7364953;19;20473;-66
2023/05/14 08:06:42;;;;;;;14.95;10.40;;;21.30;99.90;;;;;;7362339;19;20046;-66
2023/05/14 08:09:09;;;;;;;12.85;5.90;;;21.40;99.90;;;;;;7368351;19;20022;-65
2023/05/14 08:11:35;;;;;;;11.85;5.68;;;21.30;99.90;;;;;;7375616;19;20054;-67
2023/05/14 08:14:01;;;;;;;12.32;7.18;;;21.00;99.90;;;;;;7373741;19;20517;-67
2023/05/14 08:16:28;;;;;;;12.23;5.97;;;21.20;99.90;;;;;;7374227;19;20739;-67
2023/05/14 08:18:54;;;;;;;14.43;8.25;;;21.00;99.90;;;;;;7374309;19;20025;-67
2023/05/14 08:21:21;;;;;;;12.20;5.63;;;21.10;99.90;;;;;;7373781;19;20022;-59
2023/05/14 08:23:47;;;;;;;11.30;5.35;;;21.60;99.90;;;;;;7376592;19;20119;-59
2023/05/14 08:26:13;;;;;;;14.05;5.63;;;21.50;99.90;;;;;;7373346;19;20044;-58
2023/05/14 08:28:39;;;;;;;14.23;6.93;;;21.70;99.90;;;;;;7370794;19;20096;-65
2023/05/14 08:31:05;;;;;;;11.07;5.72;;;22.20;99.90;;;;;;7358602;19;20037;-66
2023/05/14 08:33:31;;;;;;;11.50;5.28;;;22.10;99.90;;;;;;7368787;19;20022;-66
2023/05/14 08:35:59;;;;;;;10.95;5.43;;;22.00;99.90;;;;;;7372276;19;20019;-67
2023/05/14 08:38:25;;;;;;;13.45;9.35;;;21.90;99.90;;;;;;7374593;19;20366;-57
2023/05/14 08:41:00;;;;;;;9.52;5.30;;;22.10;99.90;;;;;;7374656;19;20023;-57
2023/05/14 08:43:34;;;;;;;9.68;5.60;;;22.20;99.90;;;;;;7370602;19;20019;-58
2023/05/14 08:46:05;;;;;;;7.25;4.32;;;22.30;99.90;;;;;;7371551;19;20015;-57
2023/05/14 08:48:33;;;;;;;10.00;6.90;;;22.10;99.90;;;;;;7366263;19;20478;-57
2023/05/14 08:51:00;;;;;;;10.23;6.22;;;22.00;98.00;;;;;;7363660;19;20014;-57
2023/05/14 08:53:27;;;;;;;10.85;4.90;;;22.10;99.80;;;;;;7372162;19;20019;-57
2023/05/14 08:55:53;;;;;;;10.60;4.90;;;22.00;99.90;;;;;;7373253;19;20010;-59
2023/05/14 08:58:20;;;;;;;12.40;8.02;;;22.00;99.90;;;;;;7370846;19;20611;-66
2023/05/14 09:00:47;;;;;;;14.57;7.18;;;21.80;99.90;;;;;;7369760;19;20513;-66
2023/05/14 09:03:13;;;;;;;10.73;5.03;;;22.00;99.90;;;;;;7368421;19;20058;-67
2023/05/14 09:05:40;;;;;;;14.50;6.97;;;22.10;99.90;;;;;;7370426;19;20474;-66
2023/05/14 09:08:06;;;;;;;17.08;7.40;;;22.30;99.90;;;;;;7371632;19;20010;-67
2023/05/14 09:10:32;;;;;;;10.48;4.82;;;22.20;99.90;;;;;;7369697;19;20445;-67
2023/05/14 09:12:59;;;;;;;13.07;7.47;;;22.30;99.90;;;;;;7367655;19;20508;-68
2023/05/14 09:15:28;;;;;;;10.20;5.25;;;22.70;99.90;;;;;;7367417;19;20014;-67
2023/05/14 09:17:55;;;;;;;11.95;6.95;;;22.70;99.90;;;;;;7369505;19;20019;-68
2023/05/14 09:20:22;;;;;;;11.85;6.22;;;22.70;99.90;;;;;;7369275;19;20045;-67
2023/05/14 09:22:53;;;;;;;11.13;5.40;;;22.50;99.90;;;;;;7370572;19;20492;-67
2023/05/14 09:25:19;;;;;;;;;;;22.70;99.90;;;;;;7371505;19;20026;-67
2023/05/14 09:27:49;;;;;;;11.95;5.13;;;22.60;99.90;;;;;;7369626;19;19919;-67
2023/05/14 09:30:16;;;;;;;9.48;5.13;;;22.80;99.90;;;;;;7368959;19;20014;-67
2023/05/14 09:32:44;;;;;;;10.25;5.70;;;23.00;99.90;;;;;;7363958;19;20405;-66
2023/05/14 09:35:19;;;;;;;11.90;5.90;;;23.10;99.90;;;;;;7364292;19;20035;-67
2023/05/14 09:37:47;;;;;;;12.02;5.70;;;23.20;96.70;;;;;;7366874;19;20033;-68
2023/05/14 09:40:14;;;;;;;10.05;5.38;;;23.40;92.50;;;;;;7371159;19;20019;-67
2023/05/14 09:42:41;;;;;;;10.15;5.43;;;23.80;93.30;;;;;;7371796;19;20768;-67
2023/05/14 09:45:10;;;;;;;13.40;6.47;;;23.90;91.00;;;;;;7367660;19;20101;-58
2023/05/14 09:47:38;;;;;;;9.73;5.63;;;23.90;89.60;;;;;;7368225;19;20362;-58
2023/05/14 09:50:05;;;;;;;10.70;5.22;;;24.10;86.10;;;;;;7368967;19;20569;-67
2023/05/14 09:52:32;;;;;;;10.65;5.93;;;23.80;78.50;;;;;;7367196;19;20366;-58
2023/05/14 09:54:59;;;;;;;11.05;5.03;;;24.10;77.40;;;;;;7368162;19;20482;-58
2023/05/14 09:57:26;;;;;;;10.13;4.65;;;24.50;73.20;;;;;;7369001;19;20015;-67
2023/05/14 09:59:52;;;;;;;11.90;5.30;;;24.90;66.60;;;;;;7369358;19;20022;-67
2023/05/14 10:02:30;;;;;;;10.13;5.10;;;25.00;64.10;;;;;;7360676;19;20033;-57
2023/05/14 10:05:00;;;;;;;11.52;5.20;;;25.30;64.10;;;;;;7368779;19;20019;-57
2023/05/14 10:07:34;;;;;;;12.05;8.10;;;25.30;65.20;;;;;;7367984;19;20034;-57
2023/05/14 10:10:06;;;;;;;11.38;7.05;;;25.60;63.80;;;;;;7365585;19;20022;-58
2023/05/14 10:12:35;;;;;;;22.00;16.52;;;25.90;64.90;;;;;;7369407;19;20063;-70
2023/05/14 10:15:19;;;;;;;15.63;10.73;;;25.90;66.00;;;;;;7368084;19;20369;-71
2023/05/14 10:17:52;;;;;;;12.40;9.95;;;26.40;64.30;;;;;;7365459;19;20022;-71
2023/05/14 10:20:19;;;;;;;15.70;10.55;;;26.70;62.30;;;;;;7364528;19;20018;-70
2023/05/14 10:22:46;;;;;;;12.82;8.52;;;26.70;60.00;;;;;;7360342;19;20036;-71
2023/05/14 10:25:12;;;;;;;12.32;5.63;;;26.60;59.00;;;;;;7363020;19;20019;-61
2023/05/14 10:27:39;;;;;;;24.17;21.70;;;26.80;57.20;;;;;;7365834;19;20496;-70
2023/05/14 10:30:13;;;;;;;9.75;6.78;;;26.80;57.50;;;;;;7362048;19;20667;-70
2023/05/14 10:32:40;;;;;;;8.82;4.57;;;27.00;55.40;;;;;;7363582;19;20620;-70
2023/05/14 10:35:16;;;;;;;9.95;3.95;;;27.20;55.50;;;;;;7359589;19;20026;-61
2023/05/14 10:37:45;;;;;;;9.95;7.28;;;27.60;53.70;;;;;;7361071;19;20631;-70
2023/05/14 10:40:12;;;;;;;12.45;8.13;;;27.50;54.50;;;;;;7370098;19;20015;-70
2023/05/14 10:42:39;;;;;;;7.85;5.53;;;27.80;52.80;;;;;;7369534;19;20367;-61
2023/05/14 10:45:07;;;;;;;8.68;4.22;;;27.80;52.20;;;;;;7363656;19;20496;-61
2023/05/14 10:47:43;;;;;;;16.33;13.20;;;27.50;51.40;;;;;;7370037;19;20024;-71
2023/05/14 10:50:11;;;;;;;10.75;4.70;;;27.80;51.60;;;;;;7367441;19;20458;-69
2023/05/14 10:52:43;;;;;;;14.68;11.20;;;27.50;50.90;;;;;;7374542;19;20018;-69
2023/05/14 10:55:14;;;;;;;19.27;16.27;;;27.60;51.10;;;;;;7369990;19;20596;-61
2023/05/14 10:57:43;;;;;;;8.15;4.68;;;27.50;52.50;;;;;;7373642;19;20019;-68
2023/05/14 11:00:11;;;;;;;12.68;5.90;;;27.30;52.30;;;;;;7374566;19;20021;-67
2023/05/14 11:02:39;;;;;;;8.65;4.80;;;27.50;52.00;;;;;;7369379;19;20015;-62
2023/05/14 11:05:08;;;;;;;19.70;15.85;;;27.40;51.40;;;;;;7366015;19;20026;-61
2023/05/14 11:07:39;;;;;;;17.75;15.52;;;27.50;51.60;;;;;;7362735;19;20056;-68
2023/05/14 11:10:11;;;;;;;8.15;4.18;;;27.90;51.40;;;;;;7380573;19;20025;-69
2023/05/14 11:12:40;;;;;;;11.18;7.60;;;27.80;51.60;;;;;;7368664;19;20021;-62
2023/05/14 11:15:08;;;;;;;15.23;11.10;;;27.80;50.40;;;;;;7363719;19;20098;-61
2023/05/14 11:17:36;;;;;;;15.75;12.43;;;27.70;50.20;;;;;;7374904;19;20010;-60
2023/05/14 11:20:06;;;;;;;8.77;6.07;;;27.90;49.30;;;;;;7375842;19;20025;-60
2023/05/14 11:22:34;;;;;;;10.82;4.90;;;28.00;49.00;;;;;;7377079;19;20026;-69
2023/05/14 11:25:00;;;;;;;10.38;5.20;;;27.70;49.30;;;;;;7382725;19;20089;-61
2023/05/14 11:27:26;;;;;;;8.48;4.47;;;27.40;49.70;;;;;;7376468;19;20026;-67
2023/05/14 11:29:54;;;;;;;8.40;4.30;;;27.30;49.80;;;;;;7385425;19;20033;-68
2023/05/14 11:32:21;;;;;;;21.23;18.98;;;27.80;48.40;;;;;;7387151;19;20030;-68
2023/05/14 11:34:47;;;;;;;10.48;5.25;;;27.80;49.30;;;;;;7380996;19;20337;-69
2023/05/14 11:37:15;;;;;;;9.95;5.13;;;27.90;47.50;;;;;;7392679;19;20014;-68
2023/05/14 11:39:49;;;;;;;7.25;3.72;;;28.10;46.70;;;;;;7390997;19;20117;-68
2023/05/14 11:42:17;;;;;;;7.38;3.50;;;28.20;47.30;;;;;;7392439;19;20022;-68
2023/05/14 11:44:48;;;;;;;7.30;4.28;;;28.40;47.00;;;;;;7391073;19;20537;-69
2023/05/14 11:47:16;;;;;;;9.68;6.03;;;28.50;45.40;;;;;;7385498;19;20017;-74
2023/05/14 11:49:42;;;;;;;9.77;3.80;;;28.60;45.70;;;;;;7378245;19;20482;-68
2023/05/14 11:52:10;;;;;;;7.00;3.05;;;28.10;46.50;;;;;;7378911;19;20373;-61
2023/05/14 11:54:37;;;;;;;11.50;7.75;;;28.40;46.10;;;;;;7370806;19;20343;-61
2023/05/14 11:57:20;;;;;;;9.57;4.90;;;28.60;45.00;;;;;;7372605;19;20014;-61
2023/05/14 11:59:57;;;;;;;11.02;4.50;;;28.70;43.50;;;;;;7383054;19;20018;-60
2023/05/14 12:02:48;;;;;;;26.85;23.92;;;28.50;43.70;;;;;;7396498;19;20011;-68
2023/05/14 12:05:14;;;;;;;;;;;29.00;44.00;;;;;;7394521;19;20074;-68
2023/05/14 12:07:44;;;;;;;7.05;3.78;;;29.40;43.80;;;;;;7389280;19;19974;-68
2023/05/14 12:10:12;;;;;;;11.00;3.97;;;29.40;41.20;;;;;;7390088;19;20019;-68
2023/05/14 12:12:38;;;;;;;8.07;3.53;;;29.20;41.00;;;;;;7393240;19;20025;-68
2023/05/14 12:15:12;;;;;;;10.93;9.18;;;28.50;41.70;;;;;;7389998;19;20011;-68
2023/05/14 12:17:38;;;;;;;13.02;11.65;;;28.70;43.30;;;;;;7393480;19;20389;-68
2023/05/14 12:20:09;;;;;;;11.40;4.55;;;28.70;42.90;;;;;;7375288;19;20022;-68
2023/05/14 12:22:35;;;;;;;;;;;28.60;42.20;;;;;;7390689;19;20022;-68
2023/05/14 12:25:01;;;;;;;9.57;5.03;;;27.70;41.20;;;;;;7376882;19;20266;-60
2023/05/14 12:27:29;;;;;;;9.40;6.15;;;27.90;42.40;;;;;;7372530;19;20604;-60
2023/05/14 12:30:02;;;;;;;9.73;7.47;;;27.80;41.80;;;;;;7367654;19;20018;-60
2023/05/14 12:32:31;;;;;;;9.32;6.93;;;27.70;40.50;;;;;;7379143;19;20021;-68
2023/05/14 12:34:58;;;;;;;11.13;8.02;;;27.50;41.50;;;;;;7386994;19;20019;-67